Meeker, Washington
Current Conditions -  °F | °C
As of 4:18 AM on Friday 24 Oct 2014 (Local Time) from KTCM Reporting Station
Overcast Overcast  
Wind Chill: 48°   Ceiling: 3000
Heat Index: 48°   Visibility: 10mi
Dew Point: 48°   Wind: 0mph
Humidity: 100%   Direction: NA
Pressure: 30.03"   Gusts: NA
Location:  47.1905°N, 122.328°W
Report Text: KTCM 241118Z AUTO 00000KT 10SM BKN030 OVC035 09/09 A3003 RMK AO2 $
Loading
Personal Weather Stations






























Interactive Weather Map
Tropical Storm Tracking
New forecast layout! Learn more

10-Day Weather Forecast

Advertisements
Track Severe Weather on mobile